Chemstar Masa — 3FGM7 — position and weather

sailwx.info

Track history (hours):
 
Tides and Currents Weather Stations Pressure Air Temp Water Temp Dewpoint Dewpoint Depression Visibility Wind Speed Wind Dir Waves Ship Positions

Chemstar Masa

Last reported at 2014-Oct-01 18:08 UTC. Time now 2014-Oct-02 02:25 UTC.
Position N 30°58' E 122°50'.

Length 141 m; draft 5.4 m.

Type: Tanker. MMSI: 353456000.

Date/timePositionNaut miles runAvg speedWind from/ knotsBaromVisibWave heightAir tempDewpointWater temp
2014-Oct-01 18:08N 30°58' E 122°50'813.1
2014-Oct-01 17:31N 30°58' E 122°40'1313.0
2014-Oct-01 16:32N 31°00' E 122°26'3611.9
2014-Oct-01 13:33N 31°14' E 121°47'1312.9
2014-Oct-01 12:33N 31°23' E 121°36'1111.1
2014-Oct-01 11:33N 31°30' E 121°26'1212.0
2014-Oct-01 10:33N 31°38' E 121°15'1211.9
2014-Oct-01 09:33N 31°45' E 121°04'1211.9
2014-Oct-01 08:33N 31°52' E 120°53'1111.4
2014-Oct-01 07:33N 32°00' E 120°43'1211.9
2014-Oct-01 06:33N 32°04' E 120°30'1312.9
2014-Oct-01 05:33N 31°57' E 120°18'1312.8
2014-Oct-01 04:33N 31°58' E 120°02'  
2014-Sep-28 23:33N 32°05' E 119°56'0 0.4
2014-Sep-28 22:26N 32°04' E 119°56'0 0.1
2014-Sep-28 21:31N 32°04' E 119°56'4 4.2
2014-Sep-28 20:33N 32°01' E 119°58'9 9.2
2014-Sep-28 19:33N 31°56' E 120°08'6 6.3
2014-Sep-28 18:33N 31°56' E 120°15'7 7.2
2014-Sep-28 17:33N 31°58' E 120°23'6 5.7
2014-Sep-28 16:33N 32°02' E 120°28'9 8.5
2014-Sep-28 15:33N 31°60' E 120°38'9 8.5
2014-Sep-28 14:32N 32°00' E 120°48'1010.0
2014-Sep-28 13:33N 31°52' E 120°54'8 8.0
2014-Sep-28 12:33N 31°47' E 121°01'1010.3
2014-Sep-28 11:33N 31°41' E 121°11'1111.0
2014-Sep-28 10:32N 31°33' E 121°20'1010.5
2014-Sep-28 09:33N 31°26' E 121°29'6 5.5
2014-Sep-28 08:33N 31°23' E 121°35'9 9.4
2014-Sep-28 07:33N 31°19' E 121°44'50 4.9
2014-Sep-27 21:20N 31°08' E 122°41'2 3.0
2014-Sep-27 20:31N 31°08' E 122°44'1010.5
2014-Sep-27 19:32N 31°02' E 122°54'1311.0
2014-Sep-27 18:21N 30°52' E 123°04'7 8.6
2014-Sep-27 17:33N 30°48' E 123°11'2612.7
2014-Sep-27 15:32N 30°23' E 123°10'1414.6
2014-Sep-27 14:33N 30°08' E 123°08'1414.2
2014-Sep-27 13:33N 29°54' E 123°06'1313.0
2014-Sep-27 12:33N 29°42' E 123°01'1312.4
2014-Sep-27 11:32N 29°30' E 122°58'43113.5
2014-Sep-26 03:33N 22°51' E 119°55'1514.8
2014-Sep-26 02:34N 22°36' E 119°55'  
Track history (hours):
 
Tides and Currents Weather Stations Pressure Air Temp Water Temp Dewpoint Dewpoint Depression Visibility Wind Speed Wind Dir Waves Ship Positions

Chemstar Masa

Last reported at 2014-Oct-01 18:08 UTC. Time now 2014-Oct-02 02:25 UTC.
Position N 30°58' E 122°50'.

Length 141 m; draft 5.4 m.

Type: Tanker. MMSI: 353456000.

Date/timePositionNaut miles runAvg speedWind from/ knotsBaromVisibWave heightAir tempDewpointWater temp
2014-Oct-01 18:08N 30°58' E 122°50'813.1
2014-Oct-01 17:31N 30°58' E 122°40'1313.0
2014-Oct-01 16:32N 31°00' E 122°26'3611.9
2014-Oct-01 13:33N 31°14' E 121°47'1312.9
2014-Oct-01 12:33N 31°23' E 121°36'1111.1
2014-Oct-01 11:33N 31°30' E 121°26'1212.0
2014-Oct-01 10:33N 31°38' E 121°15'1211.9
2014-Oct-01 09:33N 31°45' E 121°04'1211.9
2014-Oct-01 08:33N 31°52' E 120°53'1111.4
2014-Oct-01 07:33N 32°00' E 120°43'1211.9
2014-Oct-01 06:33N 32°04' E 120°30'1312.9
2014-Oct-01 05:33N 31°57' E 120°18'1312.8
2014-Oct-01 04:33N 31°58' E 120°02'  
2014-Sep-28 23:33N 32°05' E 119°56'0 0.4
2014-Sep-28 22:26N 32°04' E 119°56'0 0.1
2014-Sep-28 21:31N 32°04' E 119°56'4 4.2
2014-Sep-28 20:33N 32°01' E 119°58'9 9.2
2014-Sep-28 19:33N 31°56' E 120°08'6 6.3
2014-Sep-28 18:33N 31°56' E 120°15'7 7.2
2014-Sep-28 17:33N 31°58' E 120°23'6 5.7
2014-Sep-28 16:33N 32°02' E 120°28'9 8.5
2014-Sep-28 15:33N 31°60' E 120°38'9 8.5
2014-Sep-28 14:32N 32°00' E 120°48'1010.0
2014-Sep-28 13:33N 31°52' E 120°54'8 8.0
2014-Sep-28 12:33N 31°47' E 121°01'1010.3
2014-Sep-28 11:33N 31°41' E 121°11'1111.0
2014-Sep-28 10:32N 31°33' E 121°20'1010.5
2014-Sep-28 09:33N 31°26' E 121°29'6 5.5
2014-Sep-28 08:33N 31°23' E 121°35'9 9.4
2014-Sep-28 07:33N 31°19' E 121°44'50 4.9
2014-Sep-27 21:20N 31°08' E 122°41'2 3.0
2014-Sep-27 20:31N 31°08' E 122°44'1010.5
2014-Sep-27 19:32N 31°02' E 122°54'1311.0
2014-Sep-27 18:21N 30°52' E 123°04'7 8.6
2014-Sep-27 17:33N 30°48' E 123°11'2612.7
2014-Sep-27 15:32N 30°23' E 123°10'1414.6
2014-Sep-27 14:33N 30°08' E 123°08'1414.2
2014-Sep-27 13:33N 29°54' E 123°06'1313.0
2014-Sep-27 12:33N 29°42' E 123°01'1312.4
2014-Sep-27 11:32N 29°30' E 122°58'43113.5
2014-Sep-26 03:33N 22°51' E 119°55'1514.8
2014-Sep-26 02:34N 22°36' E 119°55'  

Dump ship's entire track history